sensor_id;sensor_type;location;lat;lon;timestamp;pressure;altitude;pressure_sealevel;temperature;humidity
10946;BME280;5525;42.648;23.368;2023-02-03T00:07:01;94910.59;;;2.51;100.00
10946;BME280;5525;42.648;23.368;2023-02-03T00:09:28;94890.38;;;2.35;100.00
10946;BME280;5525;42.648;23.368;2023-02-03T00:11:55;94907.94;;;2.36;100.00
10946;BME280;5525;42.648;23.368;2023-02-03T00:14:22;94919.94;;;2.34;100.00
10946;BME280;5525;42.648;23.368;2023-02-03T00:16:49;94924.19;;;2.30;100.00
10946;BME280;5525;42.648;23.368;2023-02-03T00:19:16;94926.59;;;2.21;100.00
10946;BME280;5525;42.648;23.368;2023-02-03T00:21:48;94912.47;;;2.11;100.00
10946;BME280;5525;42.648;23.368;2023-02-03T00:24:16;94931.41;;;2.24;100.00
10946;BME280;5525;42.648;23.368;2023-02-03T00:26:48;94932.47;;;2.18;100.00
10946;BME280;5525;42.648;23.368;2023-02-03T00:29:15;94925.28;;;2.14;100.00
10946;BME280;5525;42.648;23.368;2023-02-03T00:31:46;94942.84;;;2.15;100.00
10946;BME280;5525;42.648;23.368;2023-02-03T00:34:14;94933.25;;;2.19;100.00
10946;BME280;5525;42.648;23.368;2023-02-03T00:36:41;94929.50;;;1.95;100.00
10946;BME280;5525;42.648;23.368;2023-02-03T00:39:08;94922.56;;;1.94;100.00
10946;BME280;5525;42.648;23.368;2023-02-03T00:41:40;94931.88;;;1.96;100.00
10946;BME280;5525;42.648;23.368;2023-02-03T00:44:08;94933.75;;;2.01;100.00
10946;BME280;5525;42.648;23.368;2023-02-03T00:46:37;94946.81;;;1.92;100.00
10946;BME280;5525;42.648;23.368;2023-02-03T00:49:09;94955.06;;;2.06;100.00
10946;BME280;5525;42.648;23.368;2023-02-03T00:51:44;94959.59;;;2.05;100.00
10946;BME280;5525;42.648;23.368;2023-02-03T00:54:11;94933.47;;;1.87;100.00
10946;BME280;5525;42.648;23.368;2023-02-03T00:56:41;94934.00;;;1.89;100.00
10946;BME280;5525;42.648;23.368;2023-02-03T00:59:09;94954.53;;;2.04;100.00
10946;BME280;5525;42.648;23.368;2023-02-03T01:01:38;94968.91;;;2.03;100.00
10946;BME280;5525;42.648;23.368;2023-02-03T01:04:06;94926.50;;;1.71;100.00
10946;BME280;5525;42.648;23.368;2023-02-03T01:06:39;94971.31;;;2.09;100.00
10946;BME280;5525;42.648;23.368;2023-02-03T01:09:07;94952.91;;;1.93;100.00
10946;BME280;5525;42.648;23.368;2023-02-03T01:11:37;94968.88;;;1.93;100.00
10946;BME280;5525;42.648;23.368;2023-02-03T01:14:07;94970.22;;;2.00;100.00
10946;BME280;5525;42.648;23.368;2023-02-03T01:16:37;94984.88;;;1.98;100.00
10946;BME280;5525;42.648;23.368;2023-02-03T01:19:04;94973.66;;;1.81;100.00
10946;BME280;5525;42.648;23.368;2023-02-03T01:21:34;94960.31;;;1.70;100.00
10946;BME280;5525;42.648;23.368;2023-02-03T01:24:02;94972.56;;;1.71;100.00
10946;BME280;5525;42.648;23.368;2023-02-03T01:26:31;94980.28;;;1.73;100.00
10946;BME280;5525;42.648;23.368;2023-02-03T01:29:00;94966.22;;;1.83;100.00
10946;BME280;5525;42.648;23.368;2023-02-03T01:31:33;94914.50;;;1.63;100.00
10946;BME280;5525;42.648;23.368;2023-02-03T01:34:05;94948.91;;;1.90;100.00
10946;BME280;5525;42.648;23.368;2023-02-03T01:36:36;94941.66;;;1.65;100.00
10946;BME280;5525;42.648;23.368;2023-02-03T01:39:04;94963.53;;;1.77;100.00
10946;BME280;5525;42.648;23.368;2023-02-03T01:41:36;94924.59;;;1.56;100.00
10946;BME280;5525;42.648;23.368;2023-02-03T01:44:35;94945.69;;;1.73;100.00
10946;BME280;5525;42.648;23.368;2023-02-03T01:47:12;94952.53;;;1.59;100.00
10946;BME280;5525;42.648;23.368;2023-02-03T01:49:44;94972.56;;;1.77;100.00
10946;BME280;5525;42.648;23.368;2023-02-03T01:52:12;94982.13;;;1.72;100.00
10946;BME280;5525;42.648;23.368;2023-02-03T01:54:43;94980.56;;;1.77;100.00
10946;BME280;5525;42.648;23.368;2023-02-03T01:57:15;94974.16;;;1.72;100.00
10946;BME280;5525;42.648;23.368;2023-02-03T01:59:44;94968.56;;;1.69;100.00
10946;BME280;5525;42.648;23.368;2023-02-03T02:02:14;94973.06;;;1.68;100.00
10946;BME280;5525;42.648;23.368;2023-02-03T02:04:47;94968.00;;;1.62;100.00
10946;BME280;5525;42.648;23.368;2023-02-03T02:07:20;94992.78;;;1.67;100.00
10946;BME280;5525;42.648;23.368;2023-02-03T02:09:49;94994.09;;;1.70;100.00
10946;BME280;5525;42.648;23.368;2023-02-03T02:12:21;94977.63;;;1.73;100.00
10946;BME280;5525;42.648;23.368;2023-02-03T02:14:51;94994.66;;;1.72;100.00
10946;BME280;5525;42.648;23.368;2023-02-03T02:17:37;94965.31;;;1.57;100.00
10946;BME280;5525;42.648;23.368;2023-02-03T02:20:43;94992.25;;;1.70;100.00
10946;BME280;5525;42.648;23.368;2023-02-03T02:32:40;94977.34;;;1.64;100.00
10946;BME280;5525;42.648;23.368;2023-02-03T02:35:16;94966.91;;;1.53;100.00
10946;BME280;5525;42.648;23.368;2023-02-03T02:37:51;94998.09;;;1.67;100.00
10946;BME280;5525;42.648;23.368;2023-02-03T02:40:32;94972.50;;;1.56;100.00
10946;BME280;5525;42.648;23.368;2023-02-03T02:43:06;94967.88;;;1.37;100.00
10946;BME280;5525;42.648;23.368;2023-02-03T02:45:41;94998.00;;;1.52;100.00
10946;BME280;5525;42.648;23.368;2023-02-03T02:48:18;94975.59;;;1.38;100.00
10946;BME280;5525;42.648;23.368;2023-02-03T02:50:52;94955.63;;;1.31;100.00
10946;BME280;5525;42.648;23.368;2023-02-03T02:53:22;94962.53;;;1.27;100.00
10946;BME280;5525;42.648;23.368;2023-02-03T02:55:51;94959.56;;;1.23;100.00
10946;BME280;5525;42.648;23.368;2023-02-03T02:58:20;94992.94;;;1.46;100.00
10946;BME280;5525;42.648;23.368;2023-02-03T03:00:52;95002.56;;;1.52;100.00
10946;BME280;5525;42.648;23.368;2023-02-03T03:03:23;94996.44;;;1.51;100.00
10946;BME280;5525;42.648;23.368;2023-02-03T03:05:58;94987.06;;;1.39;100.00
10946;BME280;5525;42.648;23.368;2023-02-03T03:08:33;94992.13;;;1.45;100.00
10946;BME280;5525;42.648;23.368;2023-02-03T03:11:06;95003.78;;;1.34;100.00
10946;BME280;5525;42.648;23.368;2023-02-03T03:13:39;95009.91;;;1.40;100.00
10946;BME280;5525;42.648;23.368;2023-02-03T03:16:08;95017.13;;;1.39;100.00
10946;BME280;5525;42.648;23.368;2023-02-03T03:18:41;95021.63;;;1.39;100.00
10946;BME280;5525;42.648;23.368;2023-02-03T03:21:13;95007.00;;;1.36;100.00
10946;BME280;5525;42.648;23.368;2023-02-03T03:23:49;95015.75;;;1.32;100.00
10946;BME280;5525;42.648;23.368;2023-02-03T03:26:21;94995.25;;;1.27;100.00
10946;BME280;5525;42.648;23.368;2023-02-03T03:28:59;94984.56;;;1.22;100.00
10946;BME280;5525;42.648;23.368;2023-02-03T03:31:29;95010.19;;;1.38;100.00
10946;BME280;5525;42.648;23.368;2023-02-03T03:34:02;95011.50;;;1.36;100.00
10946;BME280;5525;42.648;23.368;2023-02-03T03:36:31;95030.94;;;1.36;100.00
10946;BME280;5525;42.648;23.368;2023-02-03T03:39:04;95015.16;;;1.20;100.00
10946;BME280;5525;42.648;23.368;2023-02-03T03:41:39;95021.06;;;1.32;100.00
10946;BME280;5525;42.648;23.368;2023-02-03T03:44:13;95031.75;;;1.42;100.00
10946;BME280;5525;42.648;23.368;2023-02-03T03:46:45;95044.28;;;1.46;100.00
10946;BME280;5525;42.648;23.368;2023-02-03T03:49:19;95022.66;;;1.33;100.00
10946;BME280;5525;42.648;23.368;2023-02-03T03:51:51;95050.97;;;1.54;100.00
10946;BME280;5525;42.648;23.368;2023-02-03T03:54:24;95038.25;;;1.61;100.00
10946;BME280;5525;42.648;23.368;2023-02-03T03:57:01;95027.53;;;1.46;100.00
10946;BME280;5525;42.648;23.368;2023-02-03T03:59:33;95044.63;;;1.60;100.00
10946;BME280;5525;42.648;23.368;2023-02-03T04:02:03;95057.38;;;1.53;100.00
10946;BME280;5525;42.648;23.368;2023-02-03T04:04:33;95066.97;;;1.59;100.00
10946;BME280;5525;42.648;23.368;2023-02-03T04:07:04;95017.41;;;1.43;100.00
10946;BME280;5525;42.648;23.368;2023-02-03T04:09:31;95062.16;;;1.56;100.00
10946;BME280;5525;42.648;23.368;2023-02-03T04:12:04;95067.78;;;1.59;100.00
10946;BME280;5525;42.648;23.368;2023-02-03T04:14:33;95074.47;;;1.67;100.00
10946;BME280;5525;42.648;23.368;2023-02-03T04:17:02;95058.19;;;1.58;100.00
10946;BME280;5525;42.648;23.368;2023-02-03T04:19:31;95077.16;;;1.72;100.00
10946;BME280;5525;42.648;23.368;2023-02-03T04:21:58;95092.88;;;1.73;100.00
10946;BME280;5525;42.648;23.368;2023-02-03T04:24:25;95094.44;;;1.64;100.00
10946;BME280;5525;42.648;23.368;2023-02-03T04:26:51;95094.66;;;1.63;100.00
10946;BME280;5525;42.648;23.368;2023-02-03T04:29:18;95103.78;;;1.72;100.00
10946;BME280;5525;42.648;23.368;2023-02-03T04:31:45;95099.97;;;1.63;100.00
10946;BME280;5525;42.648;23.368;2023-02-03T04:34:12;95098.94;;;1.64;100.00
10946;BME280;5525;42.648;23.368;2023-02-03T04:36:40;95109.34;;;1.65;100.00
10946;BME280;5525;42.648;23.368;2023-02-03T04:39:07;95105.25;;;1.53;100.00
10946;BME280;5525;42.648;23.368;2023-02-03T04:41:34;95105.81;;;1.55;100.00
10946;BME280;5525;42.648;23.368;2023-02-03T04:44:01;95104.19;;;1.54;100.00
10946;BME280;5525;42.648;23.368;2023-02-03T04:46:28;95107.41;;;1.56;100.00
10946;BME280;5525;42.648;23.368;2023-02-03T04:48:55;95121.78;;;1.55;100.00
10946;BME280;5525;42.648;23.368;2023-02-03T04:51:22;95114.56;;;1.55;100.00
10946;BME280;5525;42.648;23.368;2023-02-03T04:53:50;95081.75;;;1.40;100.00
10946;BME280;5525;42.648;23.368;2023-02-03T04:56:17;95114.06;;;1.58;100.00
10946;BME280;5525;42.648;23.368;2023-02-03T04:58:44;95121.78;;;1.55;100.00
10946;BME280;5525;42.648;23.368;2023-02-03T05:01:11;95129.22;;;1.53;100.00
10946;BME280;5525;42.648;23.368;2023-02-03T05:03:37;95132.94;;;1.52;100.00
10946;BME280;5525;42.648;23.368;2023-02-03T05:06:05;95127.38;;;1.58;100.00
10946;BME280;5525;42.648;23.368;2023-02-03T05:08:31;95129.50;;;1.56;100.00
10946;BME280;5525;42.648;23.368;2023-02-03T05:11:00;95140.66;;;1.53;100.00
10946;BME280;5525;42.648;23.368;2023-02-03T05:13:27;95145.16;;;1.53;100.00
10946;BME280;5525;42.648;23.368;2023-02-03T05:15:55;95131.00;;;1.42;100.00
10946;BME280;5525;42.648;23.368;2023-02-03T05:18:22;95143.94;;;1.65;100.00
10946;BME280;5525;42.648;23.368;2023-02-03T05:20:49;95157.78;;;1.67;100.00
10946;BME280;5525;42.648;23.368;2023-02-03T05:23:16;95152.69;;;1.61;100.00
10946;BME280;5525;42.648;23.368;2023-02-03T05:25:43;95149.56;;;1.69;100.00
10946;BME280;5525;42.648;23.368;2023-02-03T05:28:12;95159.38;;;1.68;100.00
10946;BME280;5525;42.648;23.368;2023-02-03T05:30:39;95164.34;;;1.55;100.00
10946;BME280;5525;42.648;23.368;2023-02-03T05:33:07;95150.28;;;1.59;100.00
10946;BME280;5525;42.648;23.368;2023-02-03T05:35:35;95158.78;;;1.56;100.00
10946;BME280;5525;42.648;23.368;2023-02-03T05:38:03;95146.25;;;1.52;100.00
10946;BME280;5525;42.648;23.368;2023-02-03T05:40:30;95154.38;;;1.40;100.00
10946;BME280;5525;42.648;23.368;2023-02-03T05:43:16;95157.25;;;1.29;100.00
10946;BME280;5525;42.648;23.368;2023-02-03T05:45:44;95158.88;;;1.35;100.00
10946;BME280;5525;42.648;23.368;2023-02-03T05:48:11;95160.16;;;1.27;100.00
10946;BME280;5525;42.648;23.368;2023-02-03T05:50:39;95147.22;;;1.09;100.00
10946;BME280;5525;42.648;23.368;2023-02-03T05:53:06;95168.09;;;1.22;100.00
10946;BME280;5525;42.648;23.368;2023-02-03T05:55:33;95137.31;;;1.00;100.00
10946;BME280;5525;42.648;23.368;2023-02-03T05:58:00;95160.25;;;1.06;100.00
10946;BME280;5525;42.648;23.368;2023-02-03T06:00:30;95170.66;;;1.12;100.00
10946;BME280;5525;42.648;23.368;2023-02-03T06:03:01;95174.94;;;1.13;100.00
10946;BME280;5525;42.648;23.368;2023-02-03T06:05:29;95161.63;;;1.13;100.00
10946;BME280;5525;42.648;23.368;2023-02-03T06:07:59;95178.13;;;1.15;100.00
10946;BME280;5525;42.648;23.368;2023-02-03T06:10:27;95174.41;;;1.16;100.00
10946;BME280;5525;42.648;23.368;2023-02-03T06:12:54;95138.09;;;1.00;100.00
10946;BME280;5525;42.648;23.368;2023-02-03T06:15:21;95157.84;;;1.09;100.00
10946;BME280;5525;42.648;23.368;2023-02-03T06:17:49;95168.75;;;1.08;100.00
10946;BME280;5525;42.648;23.368;2023-02-03T06:20:18;95172.56;;;1.17;100.00
10946;BME280;5525;42.648;23.368;2023-02-03T06:22:45;95178.97;;;1.21;100.00
10946;BME280;5525;42.648;23.368;2023-02-03T06:25:12;95193.94;;;1.27;100.00
10946;BME280;5525;42.648;23.368;2023-02-03T06:27:40;95181.38;;;1.22;100.00
10946;BME280;5525;42.648;23.368;2023-02-03T06:30:08;95177.47;;;1.30;100.00
10946;BME280;5525;42.648;23.368;2023-02-03T06:32:35;95197.16;;;1.34;100.00
10946;BME280;5525;42.648;23.368;2023-02-03T06:35:04;95201.78;;;1.43;100.00
10946;BME280;5525;42.648;23.368;2023-02-03T06:37:32;95198.09;;;1.49;100.00
10946;BME280;5525;42.648;23.368;2023-02-03T06:40:00;95200.28;;;1.57;100.00
10946;BME280;5525;42.648;23.368;2023-02-03T06:42:27;95205.34;;;1.59;100.00
10946;BME280;5525;42.648;23.368;2023-02-03T06:44:55;95177.81;;;1.43;100.00
10946;BME280;5525;42.648;23.368;2023-02-03T06:47:22;95179.41;;;1.39;100.00
10946;BME280;5525;42.648;23.368;2023-02-03T06:49:49;95211.84;;;1.73;100.00
10946;BME280;5525;42.648;23.368;2023-02-03T06:52:18;95206.31;;;1.80;100.00
10946;BME280;5525;42.648;23.368;2023-02-03T06:54:45;95210.91;;;1.89;100.00
10946;BME280;5525;42.648;23.368;2023-02-03T06:57:14;95218.41;;;1.97;100.00
10946;BME280;5525;42.648;23.368;2023-02-03T06:59:42;95213.38;;;2.01;100.00
10946;BME280;5525;42.648;23.368;2023-02-03T07:02:10;95189.34;;;1.91;100.00
10946;BME280;5525;42.648;23.368;2023-02-03T07:04:37;95192.53;;;1.93;100.00
10946;BME280;5525;42.648;23.368;2023-02-03T07:07:04;95193.09;;;1.95;100.00
10946;BME280;5525;42.648;23.368;2023-02-03T07:09:33;95196.84;;;1.99;100.00
10946;BME280;5525;42.648;23.368;2023-02-03T07:12:01;95188.84;;;1.94;100.00
10946;BME280;5525;42.648;23.368;2023-02-03T07:14:28;95177.34;;;1.88;100.00
10946;BME280;5525;42.648;23.368;2023-02-03T07:16:55;95174.47;;;1.95;100.00
10946;BME280;5525;42.648;23.368;2023-02-03T07:19:22;95196.91;;;2.09;100.00
10946;BME280;5525;42.648;23.368;2023-02-03T07:21:58;95186.25;;;2.09;100.00
10946;BME280;5525;42.648;23.368;2023-02-03T07:26:56;95207.34;;;2.20;100.00
10946;BME280;5525;42.648;23.368;2023-02-03T07:29:23;95161.19;;;2.00;100.00
10946;BME280;5525;42.648;23.368;2023-02-03T07:31:51;95203.88;;;2.15;100.00
10946;BME280;5525;42.648;23.368;2023-02-03T07:34:18;95205.78;;;2.24;100.00
10946;BME280;5525;42.648;23.368;2023-02-03T07:36:44;95211.94;;;2.30;100.00
10946;BME280;5525;42.648;23.368;2023-02-03T07:39:11;95195.44;;;2.33;100.00
10946;BME280;5525;42.648;23.368;2023-02-03T07:41:38;95185.03;;;2.31;100.00
10946;BME280;5525;42.648;23.368;2023-02-03T07:44:07;95206.44;;;2.51;100.00
10946;BME280;5525;42.648;23.368;2023-02-03T07:46:34;95231.28;;;2.67;100.00
10946;BME280;5525;42.648;23.368;2023-02-03T07:49:04;95229.09;;;2.54;100.00
10946;BME280;5525;42.648;23.368;2023-02-03T07:51:31;95220.25;;;2.43;100.00
10946;BME280;5525;42.648;23.368;2023-02-03T07:53:58;95233.13;;;2.56;100.00
10946;BME280;5525;42.648;23.368;2023-02-03T07:56:25;95187.44;;;2.33;100.00
10946;BME280;5525;42.648;23.368;2023-02-03T07:58:52;95193.88;;;2.47;100.00
10946;BME280;5525;42.648;23.368;2023-02-03T08:01:21;95235.03;;;2.66;100.00
10946;BME280;5525;42.648;23.368;2023-02-03T08:03:48;95197.88;;;2.44;100.00
10946;BME280;5525;42.648;23.368;2023-02-03T08:06:15;95242.50;;;2.74;100.00
10946;BME280;5525;42.648;23.368;2023-02-03T08:08:42;95228.69;;;2.82;100.00
10946;BME280;5525;42.648;23.368;2023-02-03T08:11:15;95224.09;;;2.62;100.00
10946;BME280;5525;42.648;23.368;2023-02-03T08:13:44;95222.78;;;2.75;100.00
10946;BME280;5525;42.648;23.368;2023-02-03T08:16:13;95241.97;;;2.77;100.00
10946;BME280;5525;42.648;23.368;2023-02-03T08:18:41;95244.41;;;2.83;100.00
10946;BME280;5525;42.648;23.368;2023-02-03T08:21:08;95250.56;;;2.84;100.00
10946;BME280;5525;42.648;23.368;2023-02-03T08:23:34;95255.91;;;2.89;100.00
10946;BME280;5525;42.648;23.368;2023-02-03T08:26:01;95250.84;;;2.87;100.00
10946;BME280;5525;42.648;23.368;2023-02-03T08:28:28;95248.72;;;2.84;100.00
10946;BME280;5525;42.648;23.368;2023-02-03T08:30:55;95245.78;;;2.86;100.00
10946;BME280;5525;42.648;23.368;2023-02-03T08:33:22;95249.00;;;2.93;100.00
10946;BME280;5525;42.648;23.368;2023-02-03T08:35:51;95250.59;;;2.89;100.00
10946;BME280;5525;42.648;23.368;2023-02-03T08:38:17;95258.88;;;2.97;100.00
10946;BME280;5525;42.648;23.368;2023-02-03T08:40:46;95233.53;;;3.00;100.00
10946;BME280;5525;42.648;23.368;2023-02-03T08:43:13;95252.53;;;3.13;100.00
10946;BME280;5525;42.648;23.368;2023-02-03T08:45:40;95261.06;;;3.10;100.00
10946;BME280;5525;42.648;23.368;2023-02-03T08:48:07;95265.00;;;3.03;100.00
10946;BME280;5525;42.648;23.368;2023-02-03T08:50:34;95267.53;;;3.39;100.00
10946;BME280;5525;42.648;23.368;2023-02-03T08:53:02;95271.53;;;3.47;100.00
10946;BME280;5525;42.648;23.368;2023-02-03T08:55:28;95271.28;;;3.59;100.00
10946;BME280;5525;42.648;23.368;2023-02-03T08:57:55;95261.41;;;3.69;100.00
10946;BME280;5525;42.648;23.368;2023-02-03T09:00:22;95257.66;;;4.05;100.00
10946;BME280;5525;42.648;23.368;2023-02-03T09:02:49;95270.25;;;3.95;100.00
10946;BME280;5525;42.648;23.368;2023-02-03T09:05:16;95264.34;;;4.08;100.00
10946;BME280;5525;42.648;23.368;2023-02-03T09:07:43;95282.50;;;4.16;100.00
10946;BME280;5525;42.648;23.368;2023-02-03T09:10:11;95248.59;;;4.01;100.00
10946;BME280;5525;42.648;23.368;2023-02-03T09:12:38;95268.88;;;3.92;100.00
10946;BME280;5525;42.648;23.368;2023-02-03T09:15:05;95257.69;;;3.70;100.00
10946;BME280;5525;42.648;23.368;2023-02-03T09:17:32;95261.44;;;3.84;100.00
10946;BME280;5525;42.648;23.368;2023-02-03T09:19:58;95257.16;;;3.88;100.00
10946;BME280;5525;42.648;23.368;2023-02-03T09:22:25;95241.66;;;3.70;100.00
10946;BME280;5525;42.648;23.368;2023-02-03T09:24:52;95236.84;;;3.87;100.00
10946;BME280;5525;42.648;23.368;2023-02-03T09:27:20;95249.13;;;3.73;100.00
10946;BME280;5525;42.648;23.368;2023-02-03T09:29:47;95236.31;;;3.70;100.00
10946;BME280;5525;42.648;23.368;2023-02-03T09:32:13;95240.84;;;3.70;100.00
10946;BME280;5525;42.648;23.368;2023-02-03T09:34:40;95238.44;;;4.08;100.00
10946;BME280;5525;42.648;23.368;2023-02-03T09:37:07;95238.44;;;4.08;100.00
10946;BME280;5525;42.648;23.368;2023-02-03T09:39:34;95209.59;;;3.85;100.00
10946;BME280;5525;42.648;23.368;2023-02-03T09:42:30;95238.72;;;3.67;100.00
10946;BME280;5525;42.648;23.368;2023-02-03T09:45:09;95230.69;;;3.46;100.00
10946;BME280;5525;42.648;23.368;2023-02-03T09:47:40;95256.03;;;3.39;100.00
10946;BME280;5525;42.648;23.368;2023-02-03T09:50:13;95262.47;;;3.53;100.00
10946;BME280;5525;42.648;23.368;2023-02-03T09:52:40;95239.78;;;3.66;100.00
10946;BME280;5525;42.648;23.368;2023-02-03T09:55:19;95244.06;;;3.72;100.00
10946;BME280;5525;42.648;23.368;2023-02-03T09:57:53;95229.38;;;3.79;95.75
10946;BME280;5525;42.648;23.368;2023-02-03T10:00:25;95204.25;;;3.85;93.64
10946;BME280;5525;42.648;23.368;2023-02-03T10:02:55;95229.91;;;3.56;91.35
10946;BME280;5525;42.648;23.368;2023-02-03T10:05:31;95241.13;;;3.53;94.85
10946;BME280;5525;42.648;23.368;2023-02-03T10:08:06;95228.59;;;3.74;97.27
10946;BME280;5525;42.648;23.368;2023-02-03T10:10:39;95235.50;;;3.75;95.84
10946;BME280;5525;42.648;23.368;2023-02-03T10:13:23;95221.34;;;3.89;94.66
10946;BME280;5525;42.648;23.368;2023-02-03T10:16:03;95233.09;;;4.13;93.20
10946;BME280;5525;42.648;23.368;2023-02-03T10:18:38;95225.88;;;4.04;85.20
10946;BME280;5525;42.648;23.368;2023-02-03T10:21:13;95222.94;;;3.80;85.60
10946;BME280;5525;42.648;23.368;2023-02-03T10:23:42;95212.28;;;3.60;87.53
10946;BME280;5525;42.648;23.368;2023-02-03T10:26:15;95236.03;;;3.52;88.61
10946;BME280;5525;42.648;23.368;2023-02-03T10:28:53;95228.84;;;3.47;90.53
10946;BME280;5525;42.648;23.368;2023-02-03T10:31:21;95234.41;;;3.40;92.00
10946;BME280;5525;42.648;23.368;2023-02-03T10:33:53;95232.31;;;3.63;90.93
10946;BME280;5525;42.648;23.368;2023-02-03T10:36:31;95203.47;;;3.75;89.54
10946;BME280;5525;42.648;23.368;2023-02-03T10:39:05;95212.53;;;3.89;86.58
10946;BME280;5525;42.648;23.368;2023-02-03T10:41:36;95214.88;;;4.30;86.22
10946;BME280;5525;42.648;23.368;2023-02-03T10:44:05;95215.94;;;4.34;83.29
10946;BME280;5525;42.648;23.368;2023-02-03T10:46:34;95206.06;;;4.20;78.27
10946;BME280;5525;42.648;23.368;2023-02-03T10:49:03;95217.25;;;4.42;78.66
10946;BME280;5525;42.648;23.368;2023-02-03T10:51:35;95226.25;;;4.66;78.84
10946;BME280;5525;42.648;23.368;2023-02-03T10:54:03;95223.19;;;4.19;79.91
10946;BME280;5525;42.648;23.368;2023-02-03T10:56:33;95222.88;;;4.35;81.59
10946;BME280;5525;42.648;23.368;2023-02-03T10:59:01;95222.09;;;4.20;79.55
10946;BME280;5525;42.648;23.368;2023-02-03T11:01:40;95234.94;;;4.23;77.01
10946;BME280;5525;42.648;23.368;2023-02-03T11:04:22;95227.97;;;4.27;76.04
10946;BME280;5525;42.648;23.368;2023-02-03T11:06:56;95220.78;;;4.17;73.58
10946;BME280;5525;42.648;23.368;2023-02-03T11:09:30;95214.91;;;4.00;64.88
10946;BME280;5525;42.648;23.368;2023-02-03T11:12:06;95240.25;;;4.28;63.57
10946;BME280;5525;42.648;23.368;2023-02-03T11:14:38;95236.50;;;4.39;63.80
10946;BME280;5525;42.648;23.368;2023-02-03T11:17:08;95231.03;;;4.74;64.03
10946;BME280;5525;42.648;23.368;2023-02-03T11:19:36;95219.22;;;4.90;63.37
10946;BME280;5525;42.648;23.368;2023-02-03T11:22:05;95225.22;;;5.15;62.84
10946;BME280;5525;42.648;23.368;2023-02-03T11:24:33;95202.72;;;5.60;62.29
10946;BME280;5525;42.648;23.368;2023-02-03T11:27:05;95216.00;;;5.37;60.60
10946;BME280;5525;42.648;23.368;2023-02-03T11:29:35;95197.63;;;5.20;60.46
10946;BME280;5525;42.648;23.368;2023-02-03T11:32:16;95205.94;;;5.18;60.42
10946;BME280;5525;42.648;23.368;2023-02-03T11:34:48;95198.19;;;4.63;59.40
10946;BME280;5525;42.648;23.368;2023-02-03T11:37:26;95188.59;;;4.52;61.53
10946;BME280;5525;42.648;23.368;2023-02-03T11:39:55;95188.91;;;4.46;60.87
10946;BME280;5525;42.648;23.368;2023-02-03T11:42:23;95194.25;;;4.46;61.26
10946;BME280;5525;42.648;23.368;2023-02-03T11:44:50;95171.91;;;4.75;62.29
10946;BME280;5525;42.648;23.368;2023-02-03T11:47:19;95171.78;;;5.05;59.93
10946;BME280;5525;42.648;23.368;2023-02-03T11:50:08;95156.63;;;5.63;58.50
10946;BME280;5525;42.648;23.368;2023-02-03T11:52:46;95159.84;;;5.94;58.34
10946;BME280;5525;42.648;23.368;2023-02-03T11:55:22;95161.25;;;5.86;57.61
10946;BME280;5525;42.648;23.368;2023-02-03T11:58:07;95144.41;;;5.81;57.21
10946;BME280;5525;42.648;23.368;2023-02-03T12:00:43;95166.91;;;5.85;54.62
10946;BME280;5525;42.648;23.368;2023-02-03T12:03:38;95165.00;;;6.14;54.22
10946;BME280;5525;42.648;23.368;2023-02-03T12:06:27;95164.13;;;6.23;52.19
10946;BME280;5525;42.648;23.368;2023-02-03T12:09:13;95168.97;;;5.93;54.23
10946;BME280;5525;42.648;23.368;2023-02-03T12:11:59;95164.41;;;6.22;54.97
10946;BME280;5525;42.648;23.368;2023-02-03T12:14:42;95173.09;;;6.61;51.39
10946;BME280;5525;42.648;23.368;2023-02-03T12:17:34;95162.88;;;6.39;48.79
10946;BME280;5525;42.648;23.368;2023-02-03T12:20:21;95158.03;;;6.83;47.42
10946;BME280;5525;42.648;23.368;2023-02-03T12:22:56;95172.66;;;6.49;47.88
10946;BME280;5525;42.648;23.368;2023-02-03T12:25:35;95161.97;;;5.63;48.40
10946;BME280;5525;42.648;23.368;2023-02-03T12:28:19;95173.34;;;5.11;48.75
10946;BME280;5525;42.648;23.368;2023-02-03T12:30:51;95154.28;;;4.74;48.73
10946;BME280;5525;42.648;23.368;2023-02-03T12:33:27;95179.53;;;4.53;50.01
10946;BME280;5525;42.648;23.368;2023-02-03T12:36:06;95163.84;;;5.29;47.90
10946;BME280;5525;42.648;23.368;2023-02-03T12:38:41;95169.88;;;5.06;49.31
10946;BME280;5525;42.648;23.368;2023-02-03T12:41:13;95159.72;;;6.32;47.12
10946;BME280;5525;42.648;23.368;2023-02-03T12:43:47;95157.13;;;7.30;45.54
10946;BME280;5525;42.648;23.368;2023-02-03T12:46:18;95144.69;;;8.30;43.53
10946;BME280;5525;42.648;23.368;2023-02-03T12:48:53;95129.13;;;6.57;45.08
10946;BME280;5525;42.648;23.368;2023-02-03T12:51:30;95119.94;;;6.81;45.68
10946;BME280;5525;42.648;23.368;2023-02-03T12:54:08;95122.41;;;8.43;43.59
10946;BME280;5525;42.648;23.368;2023-02-03T12:56:40;95127.56;;;8.81;42.62
10946;BME280;5525;42.648;23.368;2023-02-03T12:59:12;95108.03;;;8.62;42.61
10946;BME280;5525;42.648;23.368;2023-02-03T13:01:44;95119.22;;;7.96;43.15
10946;BME280;5525;42.648;23.368;2023-02-03T13:04:22;95096.19;;;7.76;44.10
10946;BME280;5525;42.648;23.368;2023-02-03T13:06:59;95105.56;;;7.47;44.10
10946;BME280;5525;42.648;23.368;2023-02-03T13:09:34;95123.16;;;7.02;44.82
10946;BME280;5525;42.648;23.368;2023-02-03T13:12:07;95127.34;;;7.45;45.72
10946;BME280;5525;42.648;23.368;2023-02-03T13:14:38;95116.63;;;7.08;47.42
10946;BME280;5525;42.648;23.368;2023-02-03T13:17:13;95130.97;;;6.38;49.24
10946;BME280;5525;42.648;23.368;2023-02-03T13:19:45;95114.31;;;6.17;51.34
10946;BME280;5525;42.648;23.368;2023-02-03T13:22:18;95120.53;;;6.13;50.76
10946;BME280;5525;42.648;23.368;2023-02-03T13:24:52;95109.47;;;5.62;51.97
10946;BME280;5525;42.648;23.368;2023-02-03T13:27:35;95111.84;;;5.97;52.64
10946;BME280;5525;42.648;23.368;2023-02-03T13:30:36;95120.34;;;5.13;54.54
10946;BME280;5525;42.648;23.368;2023-02-03T13:33:33;95124.75;;;4.41;58.47
10946;BME280;5525;42.648;23.368;2023-02-03T13:36:21;95107.88;;;4.50;59.64
10946;BME280;5525;42.648;23.368;2023-02-03T13:39:19;95118.84;;;4.44;61.79
10946;BME280;5525;42.648;23.368;2023-02-03T13:41:53;95130.38;;;4.88;60.34